Terminal Aerodrome Forecast
Issued by NWS Wilmington, OH

Current Version | Previous Version | Graphics & Text | Print | Product List | Glossary On
Versions: 1 2 3 4 5 6 7 8 9 10 11 12 13 14 15 16 17 18 19 20 21 22 23 24 25 26 27 28
000
FTUS41 KILN 301129
TAFCVG
TAF
KCVG 301129Z 3012/0118 09005KT P6SM VCSH FEW010 BKN045 OVC060
      TEMPO 3012/3016 4SM -SHRA BR BKN006 OVC010
     FM301600 16006KT P6SM VCSH SCT012 BKN035
     FM010000 14003KT P6SM BKN040
     FM011300 16005KT P6SM SCT040 BKN120=

USA.gov is the U.S. government's official web portal to all federal, state and local government web resources and services.